createdAt,value
2023-01-13T00:01:19.953Z,3.20
2023-01-13T00:03:48.542Z,2.90
2023-01-13T00:06:17.947Z,3.20
2023-01-13T00:08:49.613Z,3.13
2023-01-13T00:11:18.100Z,2.90
2023-01-13T00:13:46.181Z,2.33
2023-01-13T00:16:16.051Z,3.37
2023-01-13T00:18:44.015Z,2.90
2023-01-13T00:21:14.936Z,3.13
2023-01-13T00:23:43.151Z,3.27
2023-01-13T00:26:14.685Z,3.23
2023-01-13T00:28:42.462Z,3.50
2023-01-13T00:31:12.237Z,3.50
2023-01-13T00:33:40.808Z,3.50
2023-01-13T00:36:12.565Z,2.53
2023-01-13T00:38:42.894Z,3.90
2023-01-13T00:41:14.519Z,3.37
2023-01-13T00:43:42.323Z,2.97
2023-01-13T00:46:11.651Z,3.30
2023-01-13T00:48:39.797Z,3.33
2023-01-13T00:51:09.996Z,3.60
2023-01-13T00:53:39.713Z,3.97
2023-01-13T00:56:10.735Z,4.13
2023-01-13T00:58:39.771Z,2.77
2023-01-13T01:01:10.432Z,3.50
2023-01-13T01:03:39.783Z,2.80
2023-01-13T01:06:14.519Z,3.37
2023-01-13T01:08:42.739Z,2.70
2023-01-13T01:11:12.661Z,3.30
2023-01-13T01:13:42.868Z,3.60
2023-01-13T01:16:13.618Z,3.27
2023-01-13T01:18:43.779Z,3.00
2023-01-13T01:21:12.130Z,3.30
2023-01-13T01:23:40.848Z,2.97
2023-01-13T01:26:11.499Z,3.63
2023-01-13T01:28:41.032Z,3.10
2023-01-13T01:31:10.375Z,3.27
2023-01-13T01:33:38.133Z,3.33
2023-01-13T01:36:06.104Z,3.57
2023-01-13T01:38:33.921Z,3.83
2023-01-13T01:41:02.097Z,3.63
2023-01-13T01:43:59.832Z,2.97
2023-01-13T01:46:29.062Z,3.27
2023-01-13T01:48:59.688Z,3.47
2023-01-13T01:51:29.087Z,3.47
2023-01-13T01:53:58.585Z,3.97
2023-01-13T01:56:26.392Z,3.70
2023-01-13T01:58:55.849Z,3.63
2023-01-13T02:01:23.684Z,4.10
2023-01-13T02:03:57.411Z,3.33
2023-01-13T02:06:26.127Z,2.83
2023-01-13T02:08:54.501Z,3.10
2023-01-13T02:11:43.604Z,3.40
2023-01-13T02:14:12.789Z,3.37
2023-01-13T02:16:49.664Z,2.73
2023-01-13T02:19:39.781Z,3.67
2023-01-13T02:22:26.441Z,2.97
2023-01-13T02:25:13.768Z,3.17
2023-01-13T02:28:01.247Z,2.83
2023-01-13T02:30:59.783Z,3.33
2023-01-13T02:33:38.530Z,3.00
2023-01-13T02:36:14.268Z,2.77
2023-01-13T02:38:51.172Z,2.93
2023-01-13T02:41:45.792Z,2.83
2023-01-13T02:44:18.071Z,3.33
2023-01-13T02:46:53.123Z,2.70
2023-01-13T02:49:28.702Z,3.23
2023-01-13T02:52:04.211Z,2.33
2023-01-13T02:54:35.339Z,2.57
2023-01-13T02:57:04.595Z,2.77
2023-01-13T02:59:33.454Z,2.50
2023-01-13T03:02:03.933Z,2.43
2023-01-13T03:04:50.361Z,2.30
2023-01-13T03:07:34.758Z,2.17
2023-01-13T03:10:10.962Z,2.53
2023-01-13T03:12:44.344Z,3.00
2023-01-13T03:15:19.148Z,2.50
2023-01-13T03:17:58.970Z,2.50
2023-01-13T03:20:30.093Z,2.77
2023-01-13T03:23:04.690Z,1.70
2023-01-13T03:25:36.596Z,2.30
2023-01-13T03:28:08.013Z,2.90
2023-01-13T03:30:42.071Z,1.93
2023-01-13T03:33:16.779Z,1.70
2023-01-13T03:35:47.015Z,2.27
2023-01-13T03:38:18.816Z,2.13
2023-01-13T03:40:52.211Z,2.40
2023-01-13T03:43:42.704Z,1.83
2023-01-13T03:46:18.699Z,2.03
2023-01-13T03:48:53.977Z,1.53
2023-01-13T03:51:24.075Z,1.93
2023-01-13T03:53:56.727Z,1.53
2023-01-13T03:56:30.118Z,1.33
2023-01-13T03:59:00.101Z,1.60
2023-01-13T04:01:33.449Z,1.37
2023-01-13T04:04:07.344Z,1.60
2023-01-13T04:06:41.851Z,1.10
2023-01-13T04:09:17.318Z,1.93
2023-01-13T04:11:50.269Z,1.10
2023-01-13T04:14:22.367Z,1.37
2023-01-13T04:16:50.417Z,1.27
2023-01-13T04:19:19.620Z,1.20
2023-01-13T04:21:47.399Z,1.30
2023-01-13T04:24:15.161Z,1.53
2023-01-13T04:26:42.898Z,1.50
2023-01-13T04:29:10.661Z,1.50
2023-01-13T04:31:38.772Z,1.70
2023-01-13T04:34:06.442Z,1.60
2023-01-13T04:36:35.653Z,1.80
2023-01-13T04:39:03.508Z,1.80
2023-01-13T04:41:52.819Z,2.40
2023-01-13T04:44:20.656Z,1.83
2023-01-13T04:46:48.476Z,1.50
2023-01-13T04:49:16.387Z,1.50
2023-01-13T04:51:45.587Z,1.83
2023-01-13T04:54:13.494Z,1.87
2023-01-13T04:56:41.215Z,2.23
2023-01-13T04:59:10.286Z,1.40
2023-01-13T05:01:38.225Z,1.97
2023-01-13T05:04:06.601Z,2.77
2023-01-13T05:06:34.667Z,1.83
2023-01-13T05:09:04.064Z,1.97
2023-01-13T05:11:49.280Z,2.13
2023-01-13T05:14:34.976Z,1.77
2023-01-13T05:17:03.406Z,2.03
2023-01-13T05:19:32.878Z,1.90
2023-01-13T05:22:19.023Z,2.07
2023-01-13T05:25:05.847Z,1.87
2023-01-13T05:27:33.991Z,2.17
2023-01-13T05:30:02.258Z,2.40
2023-01-13T05:32:30.040Z,1.60
2023-01-13T05:34:57.881Z,2.03
2023-01-13T05:37:26.852Z,1.93
2023-01-13T05:40:13.784Z,1.70
2023-01-13T05:42:59.476Z,3.53
2023-01-13T05:45:27.360Z,2.00
2023-01-13T05:47:55.133Z,2.30
2023-01-13T05:50:22.812Z,1.70
2023-01-13T05:52:50.567Z,1.67
2023-01-13T05:55:19.655Z,1.77
2023-01-13T05:57:47.391Z,1.80
2023-01-13T06:00:16.316Z,1.63
2023-01-13T06:02:44.111Z,1.87
2023-01-13T06:05:11.913Z,2.50
2023-01-13T06:07:39.722Z,1.90
2023-01-13T06:10:08.774Z,1.87
2023-01-13T06:12:39.035Z,1.23
2023-01-13T06:15:07.807Z,2.03
2023-01-13T06:17:35.650Z,2.47
2023-01-13T06:20:03.447Z,2.30
2023-01-13T06:22:32.961Z,2.10
2023-01-13T06:25:00.850Z,1.93
2023-01-13T06:27:30.779Z,1.73
2023-01-13T06:30:00.098Z,1.70
2023-01-13T06:32:33.890Z,1.33
2023-01-13T06:35:05.637Z,2.13
2023-01-13T06:37:35.646Z,2.00
2023-01-13T06:40:07.521Z,1.90
2023-01-13T06:42:55.348Z,1.60
2023-01-13T06:45:26.303Z,2.23
2023-01-13T06:47:54.646Z,1.23
2023-01-13T06:50:22.397Z,2.40
2023-01-13T06:52:50.099Z,2.47
2023-01-13T06:55:17.972Z,2.10
2023-01-13T06:57:53.485Z,1.83
2023-01-13T07:00:23.114Z,2.10
2023-01-13T07:02:52.522Z,1.40
2023-01-13T07:05:21.147Z,2.10
2023-01-13T07:07:49.020Z,1.73
2023-01-13T07:10:22.393Z,2.30
2023-01-13T07:13:10.159Z,2.03
2023-01-13T07:15:37.948Z,2.30
2023-01-13T07:18:07.187Z,1.80
2023-01-13T07:20:34.962Z,2.23
2023-01-13T07:23:02.733Z,2.40
2023-01-13T07:25:32.401Z,2.00
2023-01-13T07:28:00.223Z,1.77
2023-01-13T07:30:27.950Z,1.70
2023-01-13T07:32:56.900Z,1.93
2023-01-13T07:35:26.130Z,2.00
2023-01-13T07:37:53.927Z,2.27
2023-01-13T07:40:21.753Z,2.20
2023-01-13T07:43:07.094Z,1.60
2023-01-13T07:45:34.881Z,1.53
2023-01-13T07:48:02.636Z,2.30
2023-01-13T07:50:31.828Z,2.20
2023-01-13T07:52:59.988Z,2.23
2023-01-13T07:55:28.006Z,1.80
2023-01-13T07:57:55.909Z,2.43
2023-01-13T08:00:24.582Z,1.97
2023-01-13T08:02:52.357Z,1.57
2023-01-13T08:05:20.201Z,1.50
2023-01-13T08:07:49.257Z,2.53
2023-01-13T08:10:17.574Z,1.77
2023-01-13T08:13:02.998Z,2.10
2023-01-13T08:15:32.483Z,2.20
2023-01-13T08:18:00.319Z,2.20
2023-01-13T08:20:28.220Z,1.60
2023-01-13T08:23:00.038Z,1.90
2023-01-13T08:25:28.983Z,1.70
2023-01-13T08:27:57.260Z,1.90
2023-01-13T08:30:25.158Z,2.90
2023-01-13T08:32:53.242Z,2.10
2023-01-13T08:35:21.187Z,1.63
2023-01-13T08:37:50.354Z,2.23
2023-01-13T08:40:20.780Z,2.57
2023-01-13T08:42:48.943Z,1.93
2023-01-13T08:45:16.732Z,2.47
2023-01-13T08:47:44.494Z,2.30
2023-01-13T08:50:12.868Z,2.47
2023-01-13T08:52:40.723Z,2.10
2023-01-13T08:55:09.290Z,2.00
2023-01-13T08:57:38.712Z,2.40
2023-01-13T09:00:09.406Z,2.47
2023-01-13T09:02:38.425Z,2.60
2023-01-13T09:05:07.425Z,2.50
2023-01-13T09:07:38.761Z,2.73
2023-01-13T09:10:08.922Z,2.37
2023-01-13T09:12:55.611Z,2.20
2023-01-13T09:15:23.561Z,1.97
2023-01-13T09:17:51.532Z,2.40
2023-01-13T09:20:19.851Z,2.13
2023-01-13T09:22:47.580Z,1.70
2023-01-13T09:25:15.311Z,2.03
2023-01-13T09:27:44.351Z,2.60
2023-01-13T09:30:12.902Z,2.10
2023-01-13T09:32:40.764Z,1.93
2023-01-13T09:35:08.886Z,2.37
2023-01-13T09:37:39.055Z,2.47
2023-01-13T09:40:11.099Z,1.93
2023-01-13T09:43:05.111Z,2.27
2023-01-13T09:45:38.535Z,2.10
2023-01-13T09:48:13.529Z,2.07
2023-01-13T09:51:01.911Z,2.20
2023-01-13T09:53:34.930Z,2.00
2023-01-13T09:56:02.991Z,1.73
2023-01-13T09:58:34.630Z,1.90
2023-01-13T10:01:15.845Z,1.80
2023-01-13T10:03:43.791Z,2.00
2023-01-13T10:06:16.695Z,2.07
2023-01-13T10:08:46.143Z,1.83
2023-01-13T10:11:34.731Z,2.53
2023-01-13T10:14:11.677Z,1.70
2023-01-13T10:16:45.631Z,2.50
2023-01-13T10:19:19.764Z,2.23
2023-01-13T10:22:22.840Z,2.73
2023-01-13T10:25:29.288Z,2.57
2023-01-13T10:28:04.303Z,1.63
2023-01-13T10:30:39.986Z,1.67
2023-01-13T10:33:13.172Z,1.90
2023-01-13T10:35:56.563Z,1.67
2023-01-13T10:38:26.828Z,2.07
2023-01-13T10:40:57.145Z,1.40
2023-01-13T10:43:25.941Z,1.87
2023-01-13T10:46:04.379Z,1.60
2023-01-13T10:48:39.300Z,1.70
2023-01-13T10:51:28.880Z,2.17
2023-01-13T10:53:59.985Z,2.60
2023-01-13T10:56:30.890Z,3.23
2023-01-13T10:59:16.390Z,1.50
2023-01-13T11:02:03.887Z,1.83
2023-01-13T11:04:38.439Z,2.20
2023-01-13T11:07:18.824Z,1.80
2023-01-13T11:09:46.892Z,1.93
2023-01-13T11:12:31.640Z,1.50
2023-01-13T11:15:03.159Z,1.80
2023-01-13T11:17:40.525Z,2.13
2023-01-13T11:20:20.125Z,1.37
2023-01-13T11:22:51.299Z,1.40
2023-01-13T11:25:24.536Z,1.77
2023-01-13T11:27:58.862Z,1.50
2023-01-13T11:30:34.074Z,1.50
2023-01-13T11:33:28.106Z,1.90
2023-01-13T11:36:06.828Z,1.53
2023-01-13T11:38:41.670Z,1.23
2023-01-13T11:41:17.510Z,1.80
2023-01-13T11:43:51.016Z,1.60
2023-01-13T11:46:18.966Z,1.50
2023-01-13T11:48:48.115Z,1.57
2023-01-13T11:51:26.523Z,1.47
2023-01-13T11:54:11.914Z,1.57
2023-01-13T11:56:56.886Z,1.60
2023-01-13T11:59:45.997Z,1.73
2023-01-13T12:02:34.178Z,2.23
2023-01-13T12:05:09.885Z,2.00
2023-01-13T12:07:45.010Z,1.57
2023-01-13T12:10:25.960Z,1.70
2023-01-13T12:13:04.479Z,1.80
2023-01-13T12:15:59.906Z,1.73
2023-01-13T12:18:52.503Z,1.50
2023-01-13T12:21:23.630Z,1.60
2023-01-13T12:24:07.083Z,2.10
2023-01-13T12:26:39.933Z,1.37
2023-01-13T12:29:12.428Z,1.73
2023-01-13T12:31:42.277Z,1.70
2023-01-13T12:34:27.725Z,1.93
2023-01-13T12:37:03.569Z,1.70
2023-01-13T12:39:44.371Z,1.33
2023-01-13T12:42:34.830Z,1.40
2023-01-13T12:45:24.998Z,1.30
2023-01-13T12:47:52.929Z,1.20
2023-01-13T12:50:42.233Z,1.30
2023-01-13T12:53:36.714Z,1.50
2023-01-13T12:56:36.661Z,1.40
2023-01-13T12:59:48.908Z,1.53
2023-01-13T13:02:43.813Z,1.83
2023-01-13T13:05:37.729Z,1.90
2023-01-13T13:08:12.199Z,2.03
2023-01-13T13:10:48.469Z,1.90
2023-01-13T13:13:39.939Z,1.93
2023-01-13T13:16:50.295Z,1.40
2023-01-13T13:19:49.761Z,1.70
2023-01-13T13:22:39.378Z,1.83
2023-01-13T13:25:25.498Z,1.50
2023-01-13T13:28:14.674Z,1.80
2023-01-13T13:30:50.153Z,2.23
2023-01-13T13:33:35.344Z,1.67
2023-01-13T13:36:18.082Z,2.00
2023-01-13T13:39:21.371Z,1.60
2023-01-13T13:42:10.188Z,1.40
2023-01-13T13:44:59.635Z,1.20
2023-01-13T13:47:37.669Z,1.10
2023-01-13T13:50:13.695Z,1.90
2023-01-13T13:52:45.824Z,1.70
2023-01-13T13:55:18.817Z,1.80
2023-01-13T13:57:48.760Z,1.77
2023-01-13T14:00:27.263Z,1.47
2023-01-13T14:02:58.440Z,1.87
2023-01-13T14:05:28.889Z,1.40
2023-01-13T14:08:00.773Z,1.73
2023-01-13T14:10:33.786Z,1.40
2023-01-13T14:13:04.006Z,1.53
2023-01-13T14:15:36.283Z,1.70
2023-01-13T14:18:07.163Z,2.23
2023-01-13T14:20:36.877Z,1.37
2023-01-13T14:23:05.906Z,1.80
2023-01-13T14:25:39.445Z,1.43
2023-01-13T14:28:22.664Z,2.10
2023-01-13T14:30:53.125Z,1.27
2023-01-13T14:33:35.371Z,1.63
2023-01-13T14:36:08.221Z,1.87
2023-01-13T14:38:36.016Z,1.60
2023-01-13T14:41:20.035Z,1.60
2023-01-13T14:43:50.031Z,1.70
2023-01-13T14:46:21.089Z,1.43
2023-01-13T14:48:51.572Z,1.57
2023-01-13T14:51:25.600Z,1.77
2023-01-13T14:53:54.547Z,2.30
2023-01-13T14:56:47.045Z,1.83
2023-01-13T14:59:34.585Z,1.90
2023-01-13T15:02:24.401Z,1.83
2023-01-13T15:04:54.172Z,1.80
2023-01-13T15:07:27.114Z,1.50
2023-01-13T15:09:56.477Z,1.67
2023-01-13T15:12:30.436Z,2.07
2023-01-13T15:14:58.237Z,1.53
2023-01-13T15:17:27.387Z,1.53
2023-01-13T15:19:55.142Z,1.13
2023-01-13T15:22:22.928Z,1.60
2023-01-13T15:24:51.194Z,1.90
2023-01-13T15:27:21.456Z,1.80
2023-01-13T15:29:49.234Z,1.60
2023-01-13T15:32:20.333Z,1.80
2023-01-13T15:34:49.728Z,2.17
2023-01-13T15:37:19.476Z,1.50
2023-01-13T15:39:47.343Z,1.43
2023-01-13T15:42:32.674Z,1.57
2023-01-13T15:45:18.036Z,1.90
2023-01-13T15:47:46.278Z,1.53
2023-01-13T15:50:17.548Z,1.50
2023-01-13T15:52:45.423Z,0.93
2023-01-13T15:55:13.148Z,1.60
2023-01-13T15:57:46.377Z,1.97
2023-01-13T16:00:17.738Z,1.87
2023-01-13T16:02:45.515Z,1.27
2023-01-13T16:05:13.554Z,1.50
2023-01-13T16:07:46.288Z,1.40
2023-01-13T16:10:18.004Z,1.43
2023-01-13T16:12:45.845Z,1.27
2023-01-13T16:15:17.128Z,1.50
2023-01-13T16:17:46.657Z,1.10
2023-01-13T16:20:15.797Z,1.10
2023-01-13T16:22:45.555Z,1.33
2023-01-13T16:25:17.917Z,1.07
2023-01-13T16:27:45.893Z,2.03
2023-01-13T16:30:23.857Z,1.13
2023-01-13T16:32:52.144Z,1.37
2023-01-13T16:35:20.234Z,1.10
2023-01-13T16:37:49.709Z,1.80
2023-01-13T16:40:23.389Z,1.20
2023-01-13T16:42:51.525Z,1.17
2023-01-13T16:45:19.983Z,1.33
2023-01-13T16:47:47.784Z,1.13
2023-01-13T16:50:28.343Z,1.33
2023-01-13T16:52:57.535Z,1.07
2023-01-13T16:55:25.325Z,1.00
2023-01-13T16:57:53.123Z,1.20
2023-01-13T17:00:21.585Z,1.80
2023-01-13T17:02:49.926Z,1.70
2023-01-13T17:05:17.943Z,1.53
2023-01-13T17:07:47.376Z,1.87
2023-01-13T17:10:19.365Z,1.87
2023-01-13T17:12:50.444Z,1.67
2023-01-13T17:15:20.412Z,1.60
2023-01-13T17:17:52.033Z,2.13
2023-01-13T17:20:20.875Z,1.77
2023-01-13T17:22:54.868Z,1.60
2023-01-13T17:25:27.363Z,1.33
2023-01-13T17:27:55.059Z,2.37
2023-01-13T17:30:23.109Z,1.30
2023-01-13T17:32:50.828Z,1.40
2023-01-13T17:35:22.917Z,1.90
2023-01-13T17:37:50.769Z,1.33
2023-01-13T17:40:19.166Z,1.40
2023-01-13T17:42:48.369Z,1.30
2023-01-13T17:45:16.547Z,1.60
2023-01-13T17:47:47.289Z,2.00
2023-01-13T17:50:15.300Z,1.77
2023-01-13T17:52:46.527Z,1.50
2023-01-13T17:55:14.288Z,1.33
2023-01-13T17:57:42.127Z,1.43
2023-01-13T18:00:13.099Z,1.20
2023-01-13T18:02:40.992Z,1.57
2023-01-13T18:05:09.412Z,1.73
2023-01-13T18:07:37.250Z,1.30
2023-01-13T18:10:05.473Z,1.70
2023-01-13T18:12:34.878Z,1.37
2023-01-13T18:15:02.848Z,1.83
2023-01-13T18:17:31.977Z,1.27
2023-01-13T18:20:17.158Z,1.40
2023-01-13T18:23:02.361Z,1.57
2023-01-13T18:25:47.582Z,1.10
2023-01-13T18:28:16.460Z,1.10
2023-01-13T18:30:45.193Z,1.17
2023-01-13T18:33:14.372Z,1.47
2023-01-13T18:35:42.091Z,1.20
2023-01-13T18:38:11.536Z,1.20
2023-01-13T18:40:39.284Z,1.20
2023-01-13T18:43:06.015Z,0.90
2023-01-13T18:45:33.730Z,1.40
2023-01-13T18:48:02.978Z,1.40
2023-01-13T18:50:34.590Z,1.50
2023-01-13T18:53:02.654Z,1.20
2023-01-13T18:55:30.463Z,1.60
2023-01-13T18:57:58.899Z,1.40
2023-01-13T19:00:27.970Z,1.20
2023-01-13T19:05:36.255Z,1.70
2023-01-13T19:08:04.717Z,1.87
2023-01-13T19:10:32.893Z,1.77
2023-01-13T19:13:01.225Z,1.63
2023-01-13T19:15:29.032Z,1.33
2023-01-13T19:17:56.851Z,1.33
2023-01-13T19:20:25.219Z,1.43
2023-01-13T19:22:54.947Z,1.50
2023-01-13T19:25:22.775Z,1.50
2023-01-13T19:27:50.510Z,1.30
2023-01-13T19:30:18.733Z,1.40
2023-01-13T19:32:46.467Z,1.20
2023-01-13T19:35:17.450Z,1.37
2023-01-13T19:37:45.570Z,1.10
2023-01-13T19:40:15.155Z,1.40
2023-01-13T19:43:01.544Z,1.40
2023-01-13T19:45:31.117Z,1.77
2023-01-13T19:48:01.776Z,1.60
2023-01-13T19:50:29.936Z,1.50
2023-01-13T19:52:57.713Z,1.53
2023-01-13T19:55:26.878Z,1.50
2023-01-13T19:57:54.639Z,1.40
2023-01-13T20:00:23.766Z,1.83
2023-01-13T20:02:53.300Z,1.57
2023-01-13T20:05:25.738Z,1.40
2023-01-13T20:07:54.005Z,1.60
2023-01-13T20:10:23.793Z,1.23
2023-01-13T20:12:52.877Z,1.77
2023-01-13T20:15:20.690Z,1.60
2023-01-13T20:17:48.751Z,1.60
2023-01-13T20:20:18.553Z,1.47
2023-01-13T20:22:46.361Z,1.50
2023-01-13T20:25:16.763Z,1.60
2023-01-13T20:27:45.101Z,2.03
2023-01-13T20:30:14.654Z,1.30
2023-01-13T20:32:43.040Z,1.30
2023-01-13T20:35:11.826Z,1.30
2023-01-13T20:37:40.224Z,1.27
2023-01-13T20:40:10.083Z,1.17
2023-01-13T20:42:44.672Z,1.20
2023-01-13T20:45:17.484Z,1.10
2023-01-13T20:47:46.039Z,1.40
2023-01-13T20:50:14.335Z,1.30
2023-01-13T20:52:42.222Z,1.70
2023-01-13T20:55:11.118Z,1.43
2023-01-13T20:57:38.949Z,1.63
2023-01-13T21:00:08.120Z,1.03
2023-01-13T21:02:37.707Z,1.03
2023-01-13T21:05:05.986Z,1.47
2023-01-13T21:07:33.766Z,1.00
2023-01-13T21:10:01.676Z,1.50
2023-01-13T21:12:46.816Z,1.80
2023-01-13T21:15:21.919Z,1.50
2023-01-13T21:18:10.302Z,1.70
2023-01-13T21:20:39.396Z,1.30
2023-01-13T21:23:08.387Z,1.43
2023-01-13T21:25:39.437Z,1.27
2023-01-13T21:28:08.589Z,1.30
2023-01-13T21:30:38.173Z,1.87
2023-01-13T21:33:07.431Z,1.50
2023-01-13T21:35:39.076Z,1.90
2023-01-13T21:38:06.842Z,1.40
2023-01-13T21:40:34.602Z,1.50
2023-01-13T21:43:19.932Z,1.30
2023-01-13T21:46:05.704Z,1.50
2023-01-13T21:48:34.933Z,1.57
2023-01-13T21:51:02.781Z,1.73
2023-01-13T21:53:30.726Z,1.10
2023-01-13T21:55:58.577Z,1.37
2023-01-13T21:58:26.356Z,1.40
2023-01-13T22:00:54.317Z,1.40
2023-01-13T22:03:22.342Z,1.20
2023-01-13T22:05:57.365Z,1.77
2023-01-13T22:08:25.094Z,1.27
2023-01-13T22:10:58.399Z,1.47
2023-01-13T22:13:44.598Z,1.30
2023-01-13T22:16:12.929Z,1.80
2023-01-13T22:18:40.698Z,1.20
2023-01-13T22:21:10.972Z,1.20
2023-01-13T22:23:38.740Z,1.37
2023-01-13T22:26:08.432Z,1.33
2023-01-13T22:28:40.819Z,1.20
2023-01-13T22:31:09.376Z,1.30
2023-01-13T22:33:37.100Z,1.57
2023-01-13T22:36:05.173Z,1.30
2023-01-13T22:38:35.014Z,1.43
2023-01-13T22:41:04.184Z,1.50
2023-01-13T22:43:32.266Z,1.47
2023-01-13T22:46:00.891Z,1.77
2023-01-13T22:48:28.925Z,1.10
2023-01-13T22:50:56.744Z,1.63
2023-01-13T22:53:24.543Z,1.20
2023-01-13T22:55:57.415Z,1.50
2023-01-13T22:58:25.903Z,1.67
2023-01-13T23:00:54.843Z,1.30
2023-01-13T23:03:23.270Z,1.10
2023-01-13T23:05:57.909Z,1.50
2023-01-13T23:08:25.668Z,1.43
2023-01-13T23:10:53.573Z,1.60
2023-01-13T23:13:22.623Z,1.30
2023-01-13T23:15:50.722Z,1.70
2023-01-13T23:18:18.517Z,1.63
2023-01-13T23:20:46.206Z,1.17
2023-01-13T23:23:13.924Z,1.00
2023-01-13T23:25:49.286Z,1.87
2023-01-13T23:28:17.108Z,1.40
2023-01-13T23:30:46.253Z,1.80
2023-01-13T23:33:13.993Z,1.70
2023-01-13T23:35:41.936Z,1.53
2023-01-13T23:38:10.185Z,1.37
2023-01-13T23:40:38.401Z,1.30
2023-01-13T23:43:06.219Z,1.37
2023-01-13T23:45:33.959Z,1.50
2023-01-13T23:48:03.099Z,1.20
2023-01-13T23:50:30.830Z,1.27
2023-01-13T23:52:58.563Z,2.00
2023-01-13T23:55:27.074Z,1.40
2023-01-13T23:57:54.781Z,1.47
